sensor_id;sensor_type;location;lat;lon;timestamp;P1;durP1;ratioP1;P2;durP2;ratioP2
75818;SDS011;64453;51.944;9.796;2023-07-28T00:00:35;2.30;;;1.50;;
75818;SDS011;64453;51.944;9.796;2023-07-28T00:03:03;2.60;;;1.87;;
75818;SDS011;64453;51.944;9.796;2023-07-28T00:05:30;1.83;;;1.73;;
75818;SDS011;64453;51.944;9.796;2023-07-28T00:07:57;1.23;;;1.23;;
75818;SDS011;64453;51.944;9.796;2023-07-28T00:10:24;1.57;;;1.47;;
75818;SDS011;64453;51.944;9.796;2023-07-28T00:12:51;1.30;;;1.20;;
75818;SDS011;64453;51.944;9.796;2023-07-28T00:15:19;0.90;;;0.90;;
75818;SDS011;64453;51.944;9.796;2023-07-28T00:17:46;1.10;;;1.00;;
75818;SDS011;64453;51.944;9.796;2023-07-28T00:20:14;1.07;;;1.00;;
75818;SDS011;64453;51.944;9.796;2023-07-28T00:22:42;1.10;;;1.10;;
75818;SDS011;64453;51.944;9.796;2023-07-28T00:25:09;1.37;;;1.27;;
75818;SDS011;64453;51.944;9.796;2023-07-28T00:27:36;1.20;;;1.20;;
75818;SDS011;64453;51.944;9.796;2023-07-28T00:30:04;2.20;;;1.10;;
75818;SDS011;64453;51.944;9.796;2023-07-28T00:32:32;1.20;;;1.10;;
75818;SDS011;64453;51.944;9.796;2023-07-28T00:34:59;1.13;;;1.13;;
75818;SDS011;64453;51.944;9.796;2023-07-28T00:37:28;1.77;;;1.13;;
75818;SDS011;64453;51.944;9.796;2023-07-28T00:39:56;1.13;;;1.13;;
75818;SDS011;64453;51.944;9.796;2023-07-28T00:42:23;1.03;;;1.03;;
75818;SDS011;64453;51.944;9.796;2023-07-28T00:44:50;0.80;;;0.80;;
75818;SDS011;64453;51.944;9.796;2023-07-28T00:47:17;0.90;;;0.90;;
75818;SDS011;64453;51.944;9.796;2023-07-28T00:49:44;2.40;;;0.83;;
75818;SDS011;64453;51.944;9.796;2023-07-28T00:52:12;0.83;;;0.83;;
75818;SDS011;64453;51.944;9.796;2023-07-28T00:54:40;2.30;;;0.70;;
75818;SDS011;64453;51.944;9.796;2023-07-28T00:57:07;1.97;;;0.77;;
75818;SDS011;64453;51.944;9.796;2023-07-28T00:59:34;0.63;;;0.63;;
75818;SDS011;64453;51.944;9.796;2023-07-28T01:02:02;0.70;;;0.70;;
75818;SDS011;64453;51.944;9.796;2023-07-28T01:04:29;0.57;;;0.53;;
75818;SDS011;64453;51.944;9.796;2023-07-28T01:06:59;2.50;;;0.90;;
75818;SDS011;64453;51.944;9.796;2023-07-28T01:09:34;0.63;;;0.63;;
75818;SDS011;64453;51.944;9.796;2023-07-28T01:12:13;1.10;;;0.50;;
75818;SDS011;64453;51.944;9.796;2023-07-28T01:14:40;4.93;;;0.70;;
75818;SDS011;64453;51.944;9.796;2023-07-28T01:17:07;0.63;;;0.63;;
75818;SDS011;64453;51.944;9.796;2023-07-28T01:19:34;0.80;;;0.80;;
75818;SDS011;64453;51.944;9.796;2023-07-28T01:22:11;0.53;;;0.53;;
75818;SDS011;64453;51.944;9.796;2023-07-28T01:25:00;0.90;;;0.50;;
75818;SDS011;64453;51.944;9.796;2023-07-28T01:27:42;1.03;;;0.50;;
75818;SDS011;64453;51.944;9.796;2023-07-28T01:30:10;1.83;;;0.60;;
75818;SDS011;64453;51.944;9.796;2023-07-28T01:32:38;0.37;;;0.37;;
75818;SDS011;64453;51.944;9.796;2023-07-28T01:35:05;0.50;;;0.40;;
75818;SDS011;64453;51.944;9.796;2023-07-28T01:37:34;0.60;;;0.50;;
75818;SDS011;64453;51.944;9.796;2023-07-28T01:40:01;0.40;;;0.40;;
75818;SDS011;64453;51.944;9.796;2023-07-28T01:42:30;0.30;;;0.20;;
75818;SDS011;64453;51.944;9.796;2023-07-28T01:44:58;0.40;;;0.40;;
75818;SDS011;64453;51.944;9.796;2023-07-28T01:47:25;4.50;;;0.40;;
75818;SDS011;64453;51.944;9.796;2023-07-28T01:49:53;0.47;;;0.40;;
75818;SDS011;64453;51.944;9.796;2023-07-28T01:52:20;0.40;;;0.40;;
75818;SDS011;64453;51.944;9.796;2023-07-28T01:54:47;0.40;;;0.30;;
75818;SDS011;64453;51.944;9.796;2023-07-28T01:57:15;0.30;;;0.30;;
75818;SDS011;64453;51.944;9.796;2023-07-28T01:59:42;0.30;;;0.30;;
75818;SDS011;64453;51.944;9.796;2023-07-28T02:02:11;0.40;;;0.40;;
75818;SDS011;64453;51.944;9.796;2023-07-28T02:04:38;0.67;;;0.40;;
75818;SDS011;64453;51.944;9.796;2023-07-28T02:07:06;0.30;;;0.30;;
75818;SDS011;64453;51.944;9.796;2023-07-28T02:09:33;0.50;;;0.40;;
75818;SDS011;64453;51.944;9.796;2023-07-28T02:12:00;0.30;;;0.30;;
75818;SDS011;64453;51.944;9.796;2023-07-28T02:14:27;0.30;;;0.30;;
75818;SDS011;64453;51.944;9.796;2023-07-28T02:16:54;0.57;;;0.30;;
75818;SDS011;64453;51.944;9.796;2023-07-28T02:19:23;0.30;;;0.30;;
75818;SDS011;64453;51.944;9.796;2023-07-28T02:21:51;0.67;;;0.47;;
75818;SDS011;64453;51.944;9.796;2023-07-28T02:24:18;0.40;;;0.40;;
75818;SDS011;64453;51.944;9.796;2023-07-28T02:26:45;0.40;;;0.40;;
75818;SDS011;64453;51.944;9.796;2023-07-28T02:29:12;0.50;;;0.50;;
75818;SDS011;64453;51.944;9.796;2023-07-28T02:31:39;0.80;;;0.60;;
75818;SDS011;64453;51.944;9.796;2023-07-28T02:34:08;1.03;;;0.93;;
75818;SDS011;64453;51.944;9.796;2023-07-28T02:36:36;0.30;;;0.20;;
75818;SDS011;64453;51.944;9.796;2023-07-28T02:39:03;4.27;;;0.47;;
75818;SDS011;64453;51.944;9.796;2023-07-28T02:41:30;0.57;;;0.40;;
75818;SDS011;64453;51.944;9.796;2023-07-28T02:43:58;0.30;;;0.20;;
75818;SDS011;64453;51.944;9.796;2023-07-28T02:46:25;0.30;;;0.27;;
75818;SDS011;64453;51.944;9.796;2023-07-28T02:48:52;1.17;;;0.40;;
75818;SDS011;64453;51.944;9.796;2023-07-28T02:51:19;0.30;;;0.20;;
75818;SDS011;64453;51.944;9.796;2023-07-28T02:53:48;1.70;;;0.30;;
75818;SDS011;64453;51.944;9.796;2023-07-28T02:56:21;1.17;;;0.30;;
75818;SDS011;64453;51.944;9.796;2023-07-28T02:58:49;0.40;;;0.40;;
75818;SDS011;64453;51.944;9.796;2023-07-28T03:01:16;0.40;;;0.40;;
75818;SDS011;64453;51.944;9.796;2023-07-28T03:03:43;0.40;;;0.40;;
75818;SDS011;64453;51.944;9.796;2023-07-28T03:06:12;1.03;;;0.30;;
75818;SDS011;64453;51.944;9.796;2023-07-28T03:08:39;0.30;;;0.30;;
75818;SDS011;64453;51.944;9.796;2023-07-28T03:11:08;0.30;;;0.30;;
75818;SDS011;64453;51.944;9.796;2023-07-28T03:13:35;0.40;;;0.40;;
75818;SDS011;64453;51.944;9.796;2023-07-28T03:16:02;0.40;;;0.40;;
75818;SDS011;64453;51.944;9.796;2023-07-28T03:18:30;0.40;;;0.30;;
75818;SDS011;64453;51.944;9.796;2023-07-28T03:20:57;0.40;;;0.40;;
75818;SDS011;64453;51.944;9.796;2023-07-28T03:23:24;0.50;;;0.50;;
75818;SDS011;64453;51.944;9.796;2023-07-28T03:25:51;0.67;;;0.67;;
75818;SDS011;64453;51.944;9.796;2023-07-28T03:28:20;0.80;;;0.53;;
75818;SDS011;64453;51.944;9.796;2023-07-28T03:30:48;2.57;;;0.50;;
75818;SDS011;64453;51.944;9.796;2023-07-28T03:33:15;1.43;;;0.60;;
75818;SDS011;64453;51.944;9.796;2023-07-28T03:35:43;0.97;;;0.80;;
75818;SDS011;64453;51.944;9.796;2023-07-28T03:38:10;0.60;;;0.60;;
75818;SDS011;64453;51.944;9.796;2023-07-28T03:40:37;1.10;;;0.83;;
75818;SDS011;64453;51.944;9.796;2023-07-28T03:43:04;0.80;;;0.80;;
75818;SDS011;64453;51.944;9.796;2023-07-28T03:45:33;0.97;;;0.97;;
75818;SDS011;64453;51.944;9.796;2023-07-28T03:48:00;0.83;;;0.83;;
75818;SDS011;64453;51.944;9.796;2023-07-28T03:50:27;0.83;;;0.83;;
75818;SDS011;64453;51.944;9.796;2023-07-28T03:52:54;1.20;;;1.20;;
75818;SDS011;64453;51.944;9.796;2023-07-28T03:55:22;1.43;;;1.20;;
75818;SDS011;64453;51.944;9.796;2023-07-28T03:57:49;1.50;;;1.40;;
75818;SDS011;64453;51.944;9.796;2023-07-28T04:00:16;1.50;;;1.40;;
75818;SDS011;64453;51.944;9.796;2023-07-28T04:02:45;2.77;;;1.70;;
75818;SDS011;64453;51.944;9.796;2023-07-28T04:05:12;2.33;;;2.10;;
75818;SDS011;64453;51.944;9.796;2023-07-28T04:07:39;1.87;;;1.77;;
75818;SDS011;64453;51.944;9.796;2023-07-28T04:10:07;1.60;;;1.50;;
75818;SDS011;64453;51.944;9.796;2023-07-28T04:12:35;2.17;;;1.93;;
75818;SDS011;64453;51.944;9.796;2023-07-28T04:15:02;1.70;;;1.60;;
75818;SDS011;64453;51.944;9.796;2023-07-28T04:17:30;1.50;;;1.40;;
75818;SDS011;64453;51.944;9.796;2023-07-28T04:19:58;1.57;;;1.47;;
75818;SDS011;64453;51.944;9.796;2023-07-28T04:22:26;1.70;;;1.60;;
75818;SDS011;64453;51.944;9.796;2023-07-28T04:24:54;2.73;;;2.53;;
75818;SDS011;64453;51.944;9.796;2023-07-28T04:27:21;1.90;;;1.80;;
75818;SDS011;64453;51.944;9.796;2023-07-28T04:29:48;1.90;;;1.80;;
75818;SDS011;64453;51.944;9.796;2023-07-28T04:32:16;1.87;;;1.77;;
75818;SDS011;64453;51.944;9.796;2023-07-28T04:34:44;1.60;;;1.53;;
75818;SDS011;64453;51.944;9.796;2023-07-28T04:37:13;1.30;;;1.23;;
75818;SDS011;64453;51.944;9.796;2023-07-28T04:39:40;1.80;;;1.50;;
75818;SDS011;64453;51.944;9.796;2023-07-28T04:42:07;1.43;;;1.33;;
75818;SDS011;64453;51.944;9.796;2023-07-28T04:44:34;1.60;;;1.50;;
75818;SDS011;64453;51.944;9.796;2023-07-28T04:47:02;2.17;;;1.53;;
75818;SDS011;64453;51.944;9.796;2023-07-28T04:49:29;1.20;;;1.10;;
75818;SDS011;64453;51.944;9.796;2023-07-28T04:51:57;1.37;;;1.20;;
75818;SDS011;64453;51.944;9.796;2023-07-28T04:54:25;1.70;;;1.60;;
75818;SDS011;64453;51.944;9.796;2023-07-28T04:56:52;3.57;;;1.33;;
75818;SDS011;64453;51.944;9.796;2023-07-28T04:59:19;3.17;;;1.80;;
75818;SDS011;64453;51.944;9.796;2023-07-28T05:01:46;1.60;;;1.50;;
75818;SDS011;64453;51.944;9.796;2023-07-28T05:04:14;1.40;;;1.30;;
75818;SDS011;64453;51.944;9.796;2023-07-28T05:06:42;1.30;;;1.27;;
75818;SDS011;64453;51.944;9.796;2023-07-28T05:09:09;1.60;;;1.50;;
75818;SDS011;64453;51.944;9.796;2023-07-28T05:11:37;1.30;;;1.30;;
75818;SDS011;64453;51.944;9.796;2023-07-28T05:14:04;1.73;;;0.80;;
75818;SDS011;64453;51.944;9.796;2023-07-28T05:16:33;1.30;;;1.23;;
75818;SDS011;64453;51.944;9.796;2023-07-28T05:19:00;1.20;;;1.10;;
75818;SDS011;64453;51.944;9.796;2023-07-28T05:21:28;1.07;;;1.07;;
75818;SDS011;64453;51.944;9.796;2023-07-28T05:23:56;1.23;;;1.13;;
75818;SDS011;64453;51.944;9.796;2023-07-28T05:26:23;1.23;;;1.23;;
75818;SDS011;64453;51.944;9.796;2023-07-28T05:28:52;1.00;;;1.00;;
75818;SDS011;64453;51.944;9.796;2023-07-28T05:31:19;1.00;;;1.00;;
75818;SDS011;64453;51.944;9.796;2023-07-28T05:33:46;1.33;;;1.23;;
75818;SDS011;64453;51.944;9.796;2023-07-28T05:36:14;1.17;;;1.07;;
75818;SDS011;64453;51.944;9.796;2023-07-28T05:38:41;1.40;;;1.30;;
75818;SDS011;64453;51.944;9.796;2023-07-28T05:41:08;1.67;;;1.57;;
75818;SDS011;64453;51.944;9.796;2023-07-28T05:43:37;1.63;;;1.53;;
75818;SDS011;64453;51.944;9.796;2023-07-28T05:46:05;1.97;;;1.87;;
75818;SDS011;64453;51.944;9.796;2023-07-28T05:48:33;1.40;;;1.30;;
75818;SDS011;64453;51.944;9.796;2023-07-28T05:51:00;1.67;;;1.57;;
75818;SDS011;64453;51.944;9.796;2023-07-28T05:53:27;1.50;;;1.40;;
75818;SDS011;64453;51.944;9.796;2023-07-28T05:55:54;2.13;;;1.80;;
75818;SDS011;64453;51.944;9.796;2023-07-28T05:58:21;1.87;;;1.77;;
75818;SDS011;64453;51.944;9.796;2023-07-28T06:00:49;2.93;;;1.80;;
75818;SDS011;64453;51.944;9.796;2023-07-28T06:03:17;2.10;;;2.00;;
75818;SDS011;64453;51.944;9.796;2023-07-28T06:05:44;4.20;;;2.40;;
75818;SDS011;64453;51.944;9.796;2023-07-28T06:08:11;1.77;;;1.67;;
75818;SDS011;64453;51.944;9.796;2023-07-28T06:10:38;1.93;;;1.80;;
75818;SDS011;64453;51.944;9.796;2023-07-28T06:13:06;3.30;;;1.67;;
75818;SDS011;64453;51.944;9.796;2023-07-28T06:15:33;1.57;;;1.47;;
75818;SDS011;64453;51.944;9.796;2023-07-28T06:18:01;1.97;;;1.87;;
75818;SDS011;64453;51.944;9.796;2023-07-28T06:20:30;2.40;;;1.80;;
75818;SDS011;64453;51.944;9.796;2023-07-28T06:22:57;2.20;;;2.10;;
75818;SDS011;64453;51.944;9.796;2023-07-28T06:25:25;1.67;;;1.57;;
75818;SDS011;64453;51.944;9.796;2023-07-28T06:27:52;2.20;;;2.00;;
75818;SDS011;64453;51.944;9.796;2023-07-28T06:30:22;2.00;;;1.90;;
75818;SDS011;64453;51.944;9.796;2023-07-28T06:32:49;1.80;;;1.70;;
75818;SDS011;64453;51.944;9.796;2023-07-28T06:35:17;1.77;;;1.67;;
75818;SDS011;64453;51.944;9.796;2023-07-28T06:37:46;1.67;;;1.23;;
75818;SDS011;64453;51.944;9.796;2023-07-28T06:40:14;1.70;;;1.60;;
75818;SDS011;64453;51.944;9.796;2023-07-28T06:42:41;1.93;;;1.83;;
75818;SDS011;64453;51.944;9.796;2023-07-28T06:45:08;1.57;;;1.57;;
75818;SDS011;64453;51.944;9.796;2023-07-28T06:47:36;1.53;;;1.43;;
75818;SDS011;64453;51.944;9.796;2023-07-28T06:50:04;1.10;;;1.00;;
75818;SDS011;64453;51.944;9.796;2023-07-28T06:52:32;4.80;;;1.53;;
75818;SDS011;64453;51.944;9.796;2023-07-28T06:55:00;1.73;;;1.63;;
75818;SDS011;64453;51.944;9.796;2023-07-28T06:57:27;3.20;;;2.27;;
75818;SDS011;64453;51.944;9.796;2023-07-28T06:59:55;1.97;;;1.87;;
75818;SDS011;64453;51.944;9.796;2023-07-28T07:02:23;3.63;;;1.33;;
75818;SDS011;64453;51.944;9.796;2023-07-28T07:04:50;1.90;;;1.80;;
75818;SDS011;64453;51.944;9.796;2023-07-28T07:07:17;2.20;;;2.10;;
75818;SDS011;64453;51.944;9.796;2023-07-28T07:09:44;1.90;;;1.80;;
75818;SDS011;64453;51.944;9.796;2023-07-28T07:12:13;2.23;;;2.13;;
75818;SDS011;64453;51.944;9.796;2023-07-28T07:14:40;2.43;;;2.33;;
75818;SDS011;64453;51.944;9.796;2023-07-28T07:17:12;2.43;;;2.33;;
75818;SDS011;64453;51.944;9.796;2023-07-28T07:19:39;8.90;;;2.40;;
75818;SDS011;64453;51.944;9.796;2023-07-28T07:22:07;2.47;;;1.97;;
75818;SDS011;64453;51.944;9.796;2023-07-28T07:24:34;2.10;;;2.00;;
75818;SDS011;64453;51.944;9.796;2023-07-28T07:27:01;2.60;;;2.40;;
75818;SDS011;64453;51.944;9.796;2023-07-28T07:29:31;2.30;;;2.20;;
75818;SDS011;64453;51.944;9.796;2023-07-28T07:31:59;2.20;;;2.10;;
75818;SDS011;64453;51.944;9.796;2023-07-28T07:34:26;2.40;;;2.20;;
75818;SDS011;64453;51.944;9.796;2023-07-28T07:36:53;1.83;;;1.73;;
75818;SDS011;64453;51.944;9.796;2023-07-28T07:39:23;2.13;;;2.03;;
75818;SDS011;64453;51.944;9.796;2023-07-28T07:41:50;3.20;;;2.93;;
75818;SDS011;64453;51.944;9.796;2023-07-28T07:44:17;2.97;;;2.67;;
75818;SDS011;64453;51.944;9.796;2023-07-28T07:46:49;2.33;;;2.23;;
75818;SDS011;64453;51.944;9.796;2023-07-28T07:49:16;2.87;;;2.30;;
75818;SDS011;64453;51.944;9.796;2023-07-28T07:51:44;4.07;;;2.60;;
75818;SDS011;64453;51.944;9.796;2023-07-28T07:54:11;2.30;;;2.10;;
75818;SDS011;64453;51.944;9.796;2023-07-28T07:56:41;3.00;;;2.43;;
75818;SDS011;64453;51.944;9.796;2023-07-28T07:59:08;2.20;;;2.10;;
75818;SDS011;64453;51.944;9.796;2023-07-28T08:01:35;3.00;;;2.30;;
75818;SDS011;64453;51.944;9.796;2023-07-28T08:04:04;2.53;;;2.33;;
75818;SDS011;64453;51.944;9.796;2023-07-28T08:06:31;2.40;;;2.30;;
75818;SDS011;64453;51.944;9.796;2023-07-28T08:08:58;2.63;;;2.10;;
75818;SDS011;64453;51.944;9.796;2023-07-28T08:11:25;3.13;;;2.03;;
75818;SDS011;64453;51.944;9.796;2023-07-28T08:13:53;2.37;;;2.27;;
75818;SDS011;64453;51.944;9.796;2023-07-28T08:16:20;2.60;;;2.20;;
75818;SDS011;64453;51.944;9.796;2023-07-28T08:18:47;2.83;;;2.63;;
75818;SDS011;64453;51.944;9.796;2023-07-28T08:21:15;2.40;;;2.30;;
75818;SDS011;64453;51.944;9.796;2023-07-28T08:23:43;2.47;;;2.27;;
75818;SDS011;64453;51.944;9.796;2023-07-28T08:26:11;2.33;;;2.23;;
75818;SDS011;64453;51.944;9.796;2023-07-28T08:28:39;2.23;;;2.13;;
75818;SDS011;64453;51.944;9.796;2023-07-28T08:31:06;2.77;;;2.57;;
75818;SDS011;64453;51.944;9.796;2023-07-28T08:33:33;2.33;;;2.23;;
75818;SDS011;64453;51.944;9.796;2023-07-28T08:36:00;2.10;;;2.00;;
75818;SDS011;64453;51.944;9.796;2023-07-28T08:38:29;2.97;;;2.77;;
75818;SDS011;64453;51.944;9.796;2023-07-28T08:40:57;4.03;;;2.97;;
75818;SDS011;64453;51.944;9.796;2023-07-28T08:43:24;2.77;;;2.63;;
75818;SDS011;64453;51.944;9.796;2023-07-28T08:45:53;2.40;;;2.27;;
75818;SDS011;64453;51.944;9.796;2023-07-28T08:48:21;3.20;;;2.67;;
75818;SDS011;64453;51.944;9.796;2023-07-28T08:50:48;2.93;;;2.73;;
75818;SDS011;64453;51.944;9.796;2023-07-28T08:53:16;3.37;;;3.07;;
75818;SDS011;64453;51.944;9.796;2023-07-28T08:55:45;3.53;;;2.70;;
75818;SDS011;64453;51.944;9.796;2023-07-28T08:58:16;7.70;;;2.63;;
75818;SDS011;64453;51.944;9.796;2023-07-28T09:00:45;3.87;;;3.53;;
75818;SDS011;64453;51.944;9.796;2023-07-28T09:03:14;3.43;;;3.13;;
75818;SDS011;64453;51.944;9.796;2023-07-28T09:05:43;4.00;;;3.70;;
75818;SDS011;64453;51.944;9.796;2023-07-28T09:08:12;4.10;;;2.90;;
75818;SDS011;64453;51.944;9.796;2023-07-28T09:10:40;4.20;;;3.90;;
75818;SDS011;64453;51.944;9.796;2023-07-28T09:13:10;3.93;;;3.53;;
75818;SDS011;64453;51.944;9.796;2023-07-28T09:15:38;4.87;;;4.47;;
75818;SDS011;64453;51.944;9.796;2023-07-28T09:18:07;3.97;;;3.47;;
75818;SDS011;64453;51.944;9.796;2023-07-28T09:20:36;4.03;;;3.73;;
75818;SDS011;64453;51.944;9.796;2023-07-28T09:23:05;4.57;;;4.17;;
75818;SDS011;64453;51.944;9.796;2023-07-28T09:25:33;4.23;;;3.83;;
75818;SDS011;64453;51.944;9.796;2023-07-28T09:28:01;4.03;;;3.70;;
75818;SDS011;64453;51.944;9.796;2023-07-28T09:30:45;4.73;;;4.33;;
75818;SDS011;64453;51.944;9.796;2023-07-28T09:33:28;4.30;;;4.00;;
75818;SDS011;64453;51.944;9.796;2023-07-28T09:35:56;4.83;;;4.43;;
75818;SDS011;64453;51.944;9.796;2023-07-28T09:38:24;4.93;;;4.53;;
75818;SDS011;64453;51.944;9.796;2023-07-28T09:40:54;4.43;;;4.10;;
75818;SDS011;64453;51.944;9.796;2023-07-28T09:43:24;4.60;;;4.20;;
75818;SDS011;64453;51.944;9.796;2023-07-28T09:45:53;4.70;;;4.30;;
75818;SDS011;64453;51.944;9.796;2023-07-28T09:48:21;4.13;;;3.83;;
75818;SDS011;64453;51.944;9.796;2023-07-28T09:50:51;4.73;;;4.37;;
75818;SDS011;64453;51.944;9.796;2023-07-28T09:53:18;4.47;;;4.17;;
75818;SDS011;64453;51.944;9.796;2023-07-28T09:55:47;4.17;;;3.87;;
75818;SDS011;64453;51.944;9.796;2023-07-28T09:58:16;4.60;;;4.20;;
75818;SDS011;64453;51.944;9.796;2023-07-28T10:00:47;4.77;;;4.37;;
75818;SDS011;64453;51.944;9.796;2023-07-28T10:03:17;4.07;;;3.77;;
75818;SDS011;64453;51.944;9.796;2023-07-28T10:05:45;4.67;;;4.27;;
75818;SDS011;64453;51.944;9.796;2023-07-28T10:08:12;5.37;;;4.93;;
75818;SDS011;64453;51.944;9.796;2023-07-28T10:10:40;6.40;;;4.20;;
75818;SDS011;64453;51.944;9.796;2023-07-28T10:13:18;4.10;;;3.80;;
75818;SDS011;64453;51.944;9.796;2023-07-28T10:15:47;4.60;;;4.20;;
75818;SDS011;64453;51.944;9.796;2023-07-28T10:18:14;4.00;;;3.70;;
75818;SDS011;64453;51.944;9.796;2023-07-28T10:20:43;4.30;;;3.90;;
75818;SDS011;64453;51.944;9.796;2023-07-28T10:23:14;3.90;;;3.60;;
75818;SDS011;64453;51.944;9.796;2023-07-28T10:25:44;3.77;;;3.53;;
75818;SDS011;64453;51.944;9.796;2023-07-28T10:28:25;3.70;;;3.40;;
75818;SDS011;64453;51.944;9.796;2023-07-28T10:30:56;3.60;;;3.30;;
75818;SDS011;64453;51.944;9.796;2023-07-28T10:33:26;3.80;;;3.50;;
75818;SDS011;64453;51.944;9.796;2023-07-28T10:35:57;4.70;;;4.30;;
75818;SDS011;64453;51.944;9.796;2023-07-28T10:38:28;3.80;;;3.50;;
75818;SDS011;64453;51.944;9.796;2023-07-28T10:43:44;3.87;;;3.53;;
75818;SDS011;64453;51.944;9.796;2023-07-28T10:46:14;4.27;;;3.87;;
75818;SDS011;64453;51.944;9.796;2023-07-28T10:48:44;3.90;;;3.60;;
75818;SDS011;64453;51.944;9.796;2023-07-28T10:51:24;4.10;;;3.50;;
75818;SDS011;64453;51.944;9.796;2023-07-28T10:53:55;4.03;;;3.73;;
75818;SDS011;64453;51.944;9.796;2023-07-28T10:56:23;4.27;;;3.87;;
75818;SDS011;64453;51.944;9.796;2023-07-28T10:58:55;4.00;;;3.67;;
75818;SDS011;64453;51.944;9.796;2023-07-28T11:01:29;4.50;;;4.10;;
75818;SDS011;64453;51.944;9.796;2023-07-28T11:04:05;8.40;;;4.00;;
75818;SDS011;64453;51.944;9.796;2023-07-28T11:06:36;4.73;;;4.27;;
75818;SDS011;64453;51.944;9.796;2023-07-28T11:09:05;4.63;;;4.30;;
75818;SDS011;64453;51.944;9.796;2023-07-28T11:11:33;4.73;;;4.30;;
75818;SDS011;64453;51.944;9.796;2023-07-28T11:14:01;4.67;;;4.17;;
75818;SDS011;64453;51.944;9.796;2023-07-28T11:19:00;6.25;;;4.57;;
75818;SDS011;64453;51.944;9.796;2023-07-28T11:21:28;8.00;;;4.65;;
75818;SDS011;64453;51.944;9.796;2023-07-28T11:23:57;4.93;;;4.53;;
75818;SDS011;64453;51.944;9.796;2023-07-28T11:26:24;4.90;;;4.50;;
75818;SDS011;64453;51.944;9.796;2023-07-28T11:28:52;9.43;;;5.00;;
75818;SDS011;64453;51.944;9.796;2023-07-28T11:31:23;5.70;;;5.20;;
75818;SDS011;64453;51.944;9.796;2023-07-28T11:33:53;5.35;;;4.85;;
75818;SDS011;64453;51.944;9.796;2023-07-28T11:36:22;5.32;;;4.82;;
75818;SDS011;64453;51.944;9.796;2023-07-28T11:38:50;4.82;;;4.43;;
75818;SDS011;64453;51.944;9.796;2023-07-28T11:41:20;5.40;;;4.95;;
75818;SDS011;64453;51.944;9.796;2023-07-28T11:43:48;5.75;;;5.20;;
75818;SDS011;64453;51.944;9.796;2023-07-28T11:46:32;5.90;;;5.32;;
75818;SDS011;64453;51.944;9.796;2023-07-28T11:49:10;6.20;;;5.63;;
75818;SDS011;64453;51.944;9.796;2023-07-28T11:51:40;5.32;;;4.82;;
75818;SDS011;64453;51.944;9.796;2023-07-28T11:54:10;5.63;;;5.10;;
75818;SDS011;64453;51.944;9.796;2023-07-28T11:56:44;5.57;;;5.07;;
75818;SDS011;64453;51.944;9.796;2023-07-28T11:59:14;5.45;;;5.00;;
75818;SDS011;64453;51.944;9.796;2023-07-28T12:01:54;5.97;;;5.43;;
75818;SDS011;64453;51.944;9.796;2023-07-28T12:04:23;6.15;;;5.63;;
75818;SDS011;64453;51.944;9.796;2023-07-28T12:07:06;5.43;;;4.93;;
75818;SDS011;64453;51.944;9.796;2023-07-28T12:09:47;6.00;;;5.50;;
75818;SDS011;64453;51.944;9.796;2023-07-28T12:12:23;9.50;;;5.28;;
75818;SDS011;64453;51.944;9.796;2023-07-28T12:14:54;6.60;;;5.90;;
75818;SDS011;64453;51.944;9.796;2023-07-28T12:17:24;5.30;;;4.82;;
75818;SDS011;64453;51.944;9.796;2023-07-28T12:20:01;5.95;;;5.43;;
75818;SDS011;64453;51.944;9.796;2023-07-28T12:22:36;6.60;;;5.53;;
75818;SDS011;64453;51.944;9.796;2023-07-28T12:25:04;6.30;;;5.75;;
75818;SDS011;64453;51.944;9.796;2023-07-28T12:27:33;6.30;;;5.68;;
75818;SDS011;64453;51.944;9.796;2023-07-28T12:30:01;6.20;;;5.63;;
75818;SDS011;64453;51.944;9.796;2023-07-28T12:32:32;5.97;;;5.47;;
75818;SDS011;64453;51.944;9.796;2023-07-28T12:34:59;5.13;;;4.72;;
75818;SDS011;64453;51.944;9.796;2023-07-28T12:37:27;5.03;;;4.68;;
75818;SDS011;64453;51.944;9.796;2023-07-28T12:39:57;5.97;;;5.47;;
75818;SDS011;64453;51.944;9.796;2023-07-28T12:42:26;5.80;;;5.30;;
75818;SDS011;64453;51.944;9.796;2023-07-28T12:44:55;6.90;;;6.30;;
75818;SDS011;64453;51.944;9.796;2023-07-28T12:47:22;6.82;;;5.38;;
75818;SDS011;64453;51.944;9.796;2023-07-28T12:49:50;6.45;;;5.28;;
75818;SDS011;64453;51.944;9.796;2023-07-28T12:52:18;6.43;;;5.85;;
75818;SDS011;64453;51.944;9.796;2023-07-28T12:54:46;5.53;;;5.13;;
75818;SDS011;64453;51.944;9.796;2023-07-28T12:57:13;7.22;;;5.72;;
75818;SDS011;64453;51.944;9.796;2023-07-28T12:59:40;6.05;;;5.45;;
75818;SDS011;64453;51.944;9.796;2023-07-28T13:02:09;6.45;;;5.85;;
75818;SDS011;64453;51.944;9.796;2023-07-28T13:04:36;7.03;;;6.43;;
75818;SDS011;64453;51.944;9.796;2023-07-28T13:07:03;6.50;;;5.90;;
75818;SDS011;64453;51.944;9.796;2023-07-28T13:09:31;6.68;;;5.85;;
75818;SDS011;64453;51.944;9.796;2023-07-28T13:11:59;7.18;;;6.45;;
75818;SDS011;64453;51.944;9.796;2023-07-28T13:14:26;7.18;;;6.47;;
75818;SDS011;64453;51.944;9.796;2023-07-28T13:16:53;6.78;;;6.18;;
75818;SDS011;64453;51.944;9.796;2023-07-28T13:19:22;7.68;;;6.93;;
75818;SDS011;64453;51.944;9.796;2023-07-28T13:21:49;7.60;;;6.80;;
75818;SDS011;64453;51.944;9.796;2023-07-28T13:24:17;6.93;;;6.22;;
75818;SDS011;64453;51.944;9.796;2023-07-28T13:26:44;7.30;;;6.60;;
75818;SDS011;64453;51.944;9.796;2023-07-28T13:29:11;6.43;;;5.82;;
75818;SDS011;64453;51.944;9.796;2023-07-28T13:31:38;6.20;;;5.70;;
75818;SDS011;64453;51.944;9.796;2023-07-28T13:34:05;7.00;;;6.30;;
75818;SDS011;64453;51.944;9.796;2023-07-28T13:36:34;7.38;;;6.55;;
75818;SDS011;64453;51.944;9.796;2023-07-28T13:39:01;6.20;;;5.70;;
75818;SDS011;64453;51.944;9.796;2023-07-28T13:41:28;6.07;;;5.50;;
75818;SDS011;64453;51.944;9.796;2023-07-28T13:43:55;5.10;;;4.60;;
75818;SDS011;64453;51.944;9.796;2023-07-28T13:46:22;4.88;;;4.20;;
75818;SDS011;64453;51.944;9.796;2023-07-28T13:48:49;5.38;;;4.88;;
75818;SDS011;64453;51.944;9.796;2023-07-28T13:51:17;4.93;;;4.50;;
75818;SDS011;64453;51.944;9.796;2023-07-28T13:53:45;6.95;;;4.55;;
75818;SDS011;64453;51.944;9.796;2023-07-28T13:56:12;5.25;;;4.78;;
75818;SDS011;64453;51.944;9.796;2023-07-28T13:58:40;5.30;;;4.80;;
75818;SDS011;64453;51.944;9.796;2023-07-28T14:01:06;5.60;;;5.10;;
75818;SDS011;64453;51.944;9.796;2023-07-28T14:03:33;5.93;;;5.43;;
75818;SDS011;64453;51.944;9.796;2023-07-28T14:06:01;4.93;;;4.53;;
75818;SDS011;64453;51.944;9.796;2023-07-28T14:08:29;6.28;;;5.78;;
75818;SDS011;64453;51.944;9.796;2023-07-28T14:10:57;5.20;;;4.80;;
75818;SDS011;64453;51.944;9.796;2023-07-28T14:13:24;4.60;;;4.20;;
75818;SDS011;64453;51.944;9.796;2023-07-28T14:15:51;5.30;;;4.80;;
75818;SDS011;64453;51.944;9.796;2023-07-28T14:18:18;5.40;;;4.90;;
75818;SDS011;64453;51.944;9.796;2023-07-28T14:20:45;5.43;;;5.03;;
75818;SDS011;64453;51.944;9.796;2023-07-28T14:23:22;5.80;;;5.30;;
75818;SDS011;64453;51.944;9.796;2023-07-28T14:25:51;5.82;;;5.32;;
75818;SDS011;64453;51.944;9.796;2023-07-28T14:28:20;5.10;;;4.60;;
75818;SDS011;64453;51.944;9.796;2023-07-28T14:30:48;4.20;;;3.90;;
75818;SDS011;64453;51.944;9.796;2023-07-28T14:33:17;4.68;;;4.28;;
75818;SDS011;64453;51.944;9.796;2023-07-28T14:35:45;4.75;;;4.35;;
75818;SDS011;64453;51.944;9.796;2023-07-28T14:38:14;4.82;;;4.47;;
75818;SDS011;64453;51.944;9.796;2023-07-28T14:40:41;4.53;;;4.22;;
75818;SDS011;64453;51.944;9.796;2023-07-28T14:43:12;5.38;;;4.97;;
75818;SDS011;64453;51.944;9.796;2023-07-28T14:45:41;5.63;;;5.22;;
75818;SDS011;64453;51.944;9.796;2023-07-28T14:48:09;5.30;;;4.80;;
75818;SDS011;64453;51.944;9.796;2023-07-28T14:50:37;5.60;;;4.05;;
75818;SDS011;64453;51.944;9.796;2023-07-28T14:56:00;4.53;;;4.13;;
75818;SDS011;64453;51.944;9.796;2023-07-28T14:58:29;3.83;;;3.58;;
75818;SDS011;64453;51.944;9.796;2023-07-28T15:00:58;4.63;;;3.50;;
75818;SDS011;64453;51.944;9.796;2023-07-28T15:03:27;3.40;;;3.10;;